sensor_id;sensor_type;location;lat;lon;timestamp;pressure;altitude;pressure_sealevel;temperature;humidity
51081;BME280;37130;55.670;37.596;2023-04-25T00:02:04;99301.69;;;13.49;41.81
51081;BME280;37130;55.670;37.596;2023-04-25T00:04:32;99316.94;;;13.59;41.89
51081;BME280;37130;55.670;37.596;2023-04-25T00:07:01;99311.28;;;13.51;41.67
51081;BME280;37130;55.670;37.596;2023-04-25T00:09:29;99313.72;;;13.54;41.57
51081;BME280;37130;55.670;37.596;2023-04-25T00:11:56;99318.69;;;13.46;42.04
51081;BME280;37130;55.670;37.596;2023-04-25T00:14:24;99315.94;;;13.48;42.05
51081;BME280;37130;55.670;37.596;2023-04-25T00:16:52;99325.06;;;13.58;41.97
51081;BME280;37130;55.670;37.596;2023-04-25T00:19:20;99320.66;;;13.57;42.04
51081;BME280;37130;55.670;37.596;2023-04-25T00:21:48;99298.09;;;13.35;42.13
51081;BME280;37130;55.670;37.596;2023-04-25T00:24:16;99312.59;;;13.58;42.32
51081;BME280;37130;55.670;37.596;2023-04-25T00:26:43;99312.38;;;13.62;42.41
51081;BME280;37130;55.670;37.596;2023-04-25T00:29:11;99277.94;;;13.46;42.41
51081;BME280;37130;55.670;37.596;2023-04-25T00:31:39;99310.44;;;13.78;42.30
51081;BME280;37130;55.670;37.596;2023-04-25T00:34:06;99315.66;;;13.79;41.97
51081;BME280;37130;55.670;37.596;2023-04-25T00:36:35;99303.00;;;13.83;41.92
51081;BME280;37130;55.670;37.596;2023-04-25T00:39:03;99308.56;;;13.93;42.08
51081;BME280;37130;55.670;37.596;2023-04-25T00:41:32;99295.22;;;13.80;42.22
51081;BME280;37130;55.670;37.596;2023-04-25T00:44:00;99314.59;;;13.82;42.64
51081;BME280;37130;55.670;37.596;2023-04-25T00:46:31;99268.34;;;13.43;42.58
51081;BME280;37130;55.670;37.596;2023-04-25T00:48:58;99310.72;;;13.46;43.29
51081;BME280;37130;55.670;37.596;2023-04-25T00:51:26;99307.25;;;13.31;43.94
51081;BME280;37130;55.670;37.596;2023-04-25T00:53:54;99310.19;;;13.27;44.05
51081;BME280;37130;55.670;37.596;2023-04-25T00:56:22;99284.94;;;13.05;44.07
51081;BME280;37130;55.670;37.596;2023-04-25T00:58:50;99309.78;;;13.19;44.35
51081;BME280;37130;55.670;37.596;2023-04-25T01:01:20;99315.31;;;13.15;44.36
51081;BME280;37130;55.670;37.596;2023-04-25T01:03:49;99299.84;;;13.08;44.29
51081;BME280;37130;55.670;37.596;2023-04-25T01:06:18;99296.69;;;13.15;44.17
51081;BME280;37130;55.670;37.596;2023-04-25T01:08:45;99269.91;;;13.04;44.04
51081;BME280;37130;55.670;37.596;2023-04-25T01:11:12;99306.56;;;13.28;44.13
51081;BME280;37130;55.670;37.596;2023-04-25T01:13:41;99260.72;;;13.10;44.57
51081;BME280;37130;55.670;37.596;2023-04-25T01:16:09;99255.94;;;13.15;44.58
51081;BME280;37130;55.670;37.596;2023-04-25T01:18:38;99292.41;;;13.42;44.50
51081;BME280;37130;55.670;37.596;2023-04-25T01:21:08;99289.34;;;13.48;44.50
51081;BME280;37130;55.670;37.596;2023-04-25T01:23:39;99294.38;;;13.52;44.52
51081;BME280;37130;55.670;37.596;2023-04-25T01:26:09;99293.31;;;13.55;44.55
51081;BME280;37130;55.670;37.596;2023-04-25T01:28:39;99291.59;;;13.54;44.69
51081;BME280;37130;55.670;37.596;2023-04-25T01:31:09;99258.41;;;13.32;44.75
51081;BME280;37130;55.670;37.596;2023-04-25T01:33:38;99288.22;;;13.52;44.84
51081;BME280;37130;55.670;37.596;2023-04-25T01:36:06;99286.22;;;13.41;45.13
51081;BME280;37130;55.670;37.596;2023-04-25T01:38:35;99287.19;;;13.40;45.39
51081;BME280;37130;55.670;37.596;2023-04-25T01:41:02;99286.31;;;13.40;45.21
51081;BME280;37130;55.670;37.596;2023-04-25T01:43:30;99263.34;;;13.24;44.96
51081;BME280;37130;55.670;37.596;2023-04-25T01:45:58;99288.22;;;13.37;45.30
51081;BME280;37130;55.670;37.596;2023-04-25T01:48:26;99286.53;;;13.36;45.48
51081;BME280;37130;55.670;37.596;2023-04-25T01:50:54;99275.69;;;13.40;45.28
51081;BME280;37130;55.670;37.596;2023-04-25T01:53:22;99276.44;;;13.42;44.98
51081;BME280;37130;55.670;37.596;2023-04-25T01:55:50;99274.53;;;13.44;45.15
51081;BME280;37130;55.670;37.596;2023-04-25T01:58:21;99283.25;;;13.46;45.28
51081;BME280;37130;55.670;37.596;2023-04-25T02:01:27;99264.50;;;13.34;45.38
51081;BME280;37130;55.670;37.596;2023-04-25T02:04:11;99246.06;;;13.17;45.81
51081;BME280;37130;55.670;37.596;2023-04-25T02:06:40;99266.94;;;13.37;45.69
51081;BME280;37130;55.670;37.596;2023-04-25T02:09:08;99273.03;;;13.40;45.56
51081;BME280;37130;55.670;37.596;2023-04-25T02:11:40;99274.94;;;13.37;45.37
51081;BME280;37130;55.670;37.596;2023-04-25T02:14:37;99252.44;;;13.29;45.67
51081;BME280;37130;55.670;37.596;2023-04-25T02:17:15;99243.75;;;13.25;45.71
51081;BME280;37130;55.670;37.596;2023-04-25T02:19:44;99273.66;;;13.43;45.72
51081;BME280;37130;55.670;37.596;2023-04-25T02:22:12;99271.56;;;13.48;45.60
51081;BME280;37130;55.670;37.596;2023-04-25T02:24:40;99270.31;;;13.54;46.39
51081;BME280;37130;55.670;37.596;2023-04-25T02:27:07;99263.94;;;13.56;45.95
51081;BME280;37130;55.670;37.596;2023-04-25T02:29:35;99267.28;;;13.60;45.81
51081;BME280;37130;55.670;37.596;2023-04-25T02:32:03;99265.88;;;13.67;45.35
51081;BME280;37130;55.670;37.596;2023-04-25T02:34:30;99269.31;;;13.69;45.63
51081;BME280;37130;55.670;37.596;2023-04-25T02:37:00;99272.44;;;13.76;45.88
51081;BME280;37130;55.670;37.596;2023-04-25T02:39:27;99268.31;;;13.85;45.67
51081;BME280;37130;55.670;37.596;2023-04-25T02:41:55;99270.66;;;13.89;45.68
51081;BME280;37130;55.670;37.596;2023-04-25T02:44:23;99245.63;;;13.79;45.36
51081;BME280;37130;55.670;37.596;2023-04-25T02:46:50;99273.47;;;14.00;45.40
51081;BME280;37130;55.670;37.596;2023-04-25T02:49:18;99277.94;;;14.00;45.47
51081;BME280;37130;55.670;37.596;2023-04-25T02:51:45;99274.09;;;14.04;44.92
51081;BME280;37130;55.670;37.596;2023-04-25T02:54:13;99251.72;;;13.94;44.84
51081;BME280;37130;55.670;37.596;2023-04-25T02:56:43;99276.69;;;14.18;44.41
51081;BME280;37130;55.670;37.596;2023-04-25T02:59:17;99269.19;;;14.76;44.04
51081;BME280;37130;55.670;37.596;2023-04-25T03:01:44;99265.25;;;15.31;43.20
51081;BME280;37130;55.670;37.596;2023-04-25T03:04:12;99274.34;;;15.16;43.15
51081;BME280;37130;55.670;37.596;2023-04-25T03:06:40;99277.09;;;14.78;43.42
51081;BME280;37130;55.670;37.596;2023-04-25T03:09:07;99288.50;;;14.54;43.80
51081;BME280;37130;55.670;37.596;2023-04-25T03:11:36;99270.44;;;14.45;44.02
51081;BME280;37130;55.670;37.596;2023-04-25T03:14:04;99287.19;;;14.47;44.37
51081;BME280;37130;55.670;37.596;2023-04-25T03:16:32;99286.13;;;14.50;43.80
51081;BME280;37130;55.670;37.596;2023-04-25T03:19:00;99284.28;;;14.50;44.38
51081;BME280;37130;55.670;37.596;2023-04-25T03:21:27;99286.78;;;14.53;44.14
51081;BME280;37130;55.670;37.596;2023-04-25T03:23:58;99281.66;;;14.63;44.24
51081;BME280;37130;55.670;37.596;2023-04-25T03:26:26;99284.22;;;14.77;43.88
51081;BME280;37130;55.670;37.596;2023-04-25T03:28:54;99289.75;;;15.00;43.59
51081;BME280;37130;55.670;37.596;2023-04-25T03:31:22;99286.63;;;15.19;43.88
51081;BME280;37130;55.670;37.596;2023-04-25T03:33:49;99288.41;;;15.31;43.26
51081;BME280;37130;55.670;37.596;2023-04-25T03:36:20;99279.44;;;15.32;43.83
51081;BME280;37130;55.670;37.596;2023-04-25T03:38:47;99300.13;;;15.41;44.32
51081;BME280;37130;55.670;37.596;2023-04-25T03:41:16;99294.50;;;15.33;43.99
51081;BME280;37130;55.670;37.596;2023-04-25T03:43:48;99239.63;;;15.29;43.75
51081;BME280;37130;55.670;37.596;2023-04-25T03:46:16;99279.38;;;15.82;43.40
51081;BME280;37130;55.670;37.596;2023-04-25T03:48:45;99294.84;;;15.89;43.37
51081;BME280;37130;55.670;37.596;2023-04-25T03:51:19;99291.31;;;16.59;42.99
51081;BME280;37130;55.670;37.596;2023-04-25T03:53:47;99283.41;;;17.59;41.49
51081;BME280;37130;55.670;37.596;2023-04-25T03:56:18;99290.31;;;18.79;39.83
51081;BME280;37130;55.670;37.596;2023-04-25T03:58:50;99288.09;;;19.65;38.53
51081;BME280;37130;55.670;37.596;2023-04-25T04:01:19;99259.13;;;20.37;37.36
51081;BME280;37130;55.670;37.596;2023-04-25T04:03:48;99284.75;;;20.98;36.34
51081;BME280;37130;55.670;37.596;2023-04-25T04:06:16;99260.84;;;20.85;36.19
51081;BME280;37130;55.670;37.596;2023-04-25T04:08:48;99259.72;;;20.21;36.56
51081;BME280;37130;55.670;37.596;2023-04-25T04:11:16;99289.69;;;19.78;37.60
51081;BME280;37130;55.670;37.596;2023-04-25T04:13:44;99287.00;;;20.17;37.36
51081;BME280;37130;55.670;37.596;2023-04-25T04:16:11;99289.28;;;21.07;36.23
51081;BME280;37130;55.670;37.596;2023-04-25T04:18:39;99290.94;;;21.73;35.33
51081;BME280;37130;55.670;37.596;2023-04-25T04:21:06;99294.16;;;22.22;34.79
51081;BME280;37130;55.670;37.596;2023-04-25T04:23:37;99296.44;;;23.39;33.78
51081;BME280;37130;55.670;37.596;2023-04-25T04:26:07;99291.25;;;24.70;32.59
51081;BME280;37130;55.670;37.596;2023-04-25T04:28:56;99291.84;;;25.61;31.39
51081;BME280;37130;55.670;37.596;2023-04-25T04:31:42;99294.44;;;25.94;30.80
51081;BME280;37130;55.670;37.596;2023-04-25T04:34:10;99273.03;;;25.59;30.65
51081;BME280;37130;55.670;37.596;2023-04-25T04:36:39;99297.63;;;25.58;30.59
51081;BME280;37130;55.670;37.596;2023-04-25T04:39:07;99249.84;;;25.09;30.57
51081;BME280;37130;55.670;37.596;2023-04-25T04:41:43;99309.19;;;25.83;29.64
51081;BME280;37130;55.670;37.596;2023-04-25T04:44:15;99292.44;;;26.34;28.72
51081;BME280;37130;55.670;37.596;2023-04-25T04:47:02;99298.03;;;27.08;27.92
51081;BME280;37130;55.670;37.596;2023-04-25T04:49:53;99242.19;;;27.20;27.62
51081;BME280;37130;55.670;37.596;2023-04-25T04:52:42;99294.59;;;27.80;27.03
51081;BME280;37130;55.670;37.596;2023-04-25T04:55:27;99294.13;;;28.13;26.77
51081;BME280;37130;55.670;37.596;2023-04-25T04:58:09;99295.38;;;28.32;26.63
51081;BME280;37130;55.670;37.596;2023-04-25T05:00:57;99292.78;;;28.67;26.18
51081;BME280;37130;55.670;37.596;2023-04-25T05:03:28;99289.91;;;29.03;25.79
51081;BME280;37130;55.670;37.596;2023-04-25T05:06:25;99293.16;;;29.20;25.17
51081;BME280;37130;55.670;37.596;2023-04-25T05:09:27;99288.00;;;29.38;24.89
51081;BME280;37130;55.670;37.596;2023-04-25T05:12:09;99242.22;;;29.27;24.67
51081;BME280;37130;55.670;37.596;2023-04-25T05:14:56;99284.28;;;29.46;24.07
51081;BME280;37130;55.670;37.596;2023-04-25T05:17:42;99286.94;;;28.98;26.43
51081;BME280;37130;55.670;37.596;2023-04-25T05:20:28;99285.06;;;29.81;24.48
51081;BME280;37130;55.670;37.596;2023-04-25T05:23:18;99281.47;;;29.74;24.18
51081;BME280;37130;55.670;37.596;2023-04-25T05:26:06;99282.38;;;29.05;24.87
51081;BME280;37130;55.670;37.596;2023-04-25T05:29:00;99274.00;;;29.13;24.68
51081;BME280;37130;55.670;37.596;2023-04-25T05:31:44;99277.06;;;29.32;24.35
51081;BME280;37130;55.670;37.596;2023-04-25T05:34:16;99279.50;;;29.61;24.23
51081;BME280;37130;55.670;37.596;2023-04-25T05:37:04;99260.09;;;29.36;24.44
51081;BME280;37130;55.670;37.596;2023-04-25T05:39:34;99292.81;;;29.30;24.54
51081;BME280;37130;55.670;37.596;2023-04-25T05:42:22;99277.38;;;29.57;24.05
51081;BME280;37130;55.670;37.596;2023-04-25T05:45:19;99282.38;;;29.40;24.11
51081;BME280;37130;55.670;37.596;2023-04-25T05:48:22;99280.06;;;29.43;24.45
51081;BME280;37130;55.670;37.596;2023-04-25T05:50:58;99272.28;;;29.47;24.05
51081;BME280;37130;55.670;37.596;2023-04-25T05:53:44;99270.94;;;29.64;23.95
51081;BME280;37130;55.670;37.596;2023-04-25T05:56:13;99274.38;;;29.03;24.00
51081;BME280;37130;55.670;37.596;2023-04-25T05:58:41;99270.28;;;29.21;23.94
51081;BME280;37130;55.670;37.596;2023-04-25T06:01:11;99255.31;;;29.45;24.02
51081;BME280;37130;55.670;37.596;2023-04-25T06:03:39;99258.06;;;29.52;23.86
51081;BME280;37130;55.670;37.596;2023-04-25T06:06:11;99259.03;;;29.92;23.40
51081;BME280;37130;55.670;37.596;2023-04-25T06:08:40;99261.59;;;30.07;22.86
51081;BME280;37130;55.670;37.596;2023-04-25T06:11:11;99260.56;;;30.21;23.07
51081;BME280;37130;55.670;37.596;2023-04-25T06:13:38;99231.97;;;30.17;22.52
51081;BME280;37130;55.670;37.596;2023-04-25T06:16:06;99247.50;;;30.10;22.37
51081;BME280;37130;55.670;37.596;2023-04-25T06:18:34;99254.28;;;30.41;22.37
51081;BME280;37130;55.670;37.596;2023-04-25T06:21:02;99247.97;;;30.60;22.33
51081;BME280;37130;55.670;37.596;2023-04-25T06:23:30;99236.19;;;30.79;22.17
51081;BME280;37130;55.670;37.596;2023-04-25T06:26:02;99203.78;;;30.76;21.70
51081;BME280;37130;55.670;37.596;2023-04-25T06:28:31;99235.69;;;31.16;21.27
51081;BME280;37130;55.670;37.596;2023-04-25T06:30:59;99241.75;;;31.38;21.13
51081;BME280;37130;55.670;37.596;2023-04-25T06:33:26;99245.03;;;31.53;21.13
51081;BME280;37130;55.670;37.596;2023-04-25T06:35:56;99228.78;;;31.65;21.11
51081;BME280;37130;55.670;37.596;2023-04-25T06:38:26;99236.56;;;31.61;20.46
51081;BME280;37130;55.670;37.596;2023-04-25T06:40:56;99233.22;;;31.59;20.45
51081;BME280;37130;55.670;37.596;2023-04-25T06:43:26;99233.72;;;31.81;20.75
51081;BME280;37130;55.670;37.596;2023-04-25T06:46:17;99234.50;;;31.88;20.76
51081;BME280;37130;55.670;37.596;2023-04-25T06:48:47;99241.84;;;31.63;20.46
51081;BME280;37130;55.670;37.596;2023-04-25T06:51:16;99241.75;;;31.31;19.92
51081;BME280;37130;55.670;37.596;2023-04-25T06:53:44;99240.41;;;30.82;20.20
51081;BME280;37130;55.670;37.596;2023-04-25T06:56:25;99246.09;;;30.61;20.14
51081;BME280;37130;55.670;37.596;2023-04-25T06:59:02;99233.03;;;30.23;20.44
51081;BME280;37130;55.670;37.596;2023-04-25T07:01:32;99231.16;;;30.63;19.79
51081;BME280;37130;55.670;37.596;2023-04-25T07:04:03;99241.22;;;31.03;20.01
51081;BME280;37130;55.670;37.596;2023-04-25T07:06:35;99238.75;;;31.46;19.70
51081;BME280;37130;55.670;37.596;2023-04-25T07:09:05;99241.50;;;31.46;19.94
51081;BME280;37130;55.670;37.596;2023-04-25T07:11:33;99240.88;;;31.44;20.56
51081;BME280;37130;55.670;37.596;2023-04-25T07:14:01;99215.63;;;31.42;20.32
51081;BME280;37130;55.670;37.596;2023-04-25T07:16:29;99233.53;;;31.38;20.94
51081;BME280;37130;55.670;37.596;2023-04-25T07:18:57;99235.56;;;31.49;20.28
51081;BME280;37130;55.670;37.596;2023-04-25T07:21:27;99238.19;;;31.17;19.85
51081;BME280;37130;55.670;37.596;2023-04-25T07:23:55;99246.28;;;30.86;20.52
51081;BME280;37130;55.670;37.596;2023-04-25T07:26:28;99237.84;;;30.94;20.83
51081;BME280;37130;55.670;37.596;2023-04-25T07:29:14;99241.22;;;30.96;20.29
51081;BME280;37130;55.670;37.596;2023-04-25T07:31:43;99234.91;;;30.22;20.79
51081;BME280;37130;55.670;37.596;2023-04-25T07:34:10;99233.63;;;29.30;21.13
51081;BME280;37130;55.670;37.596;2023-04-25T07:36:38;99229.69;;;28.70;21.32
51081;BME280;37130;55.670;37.596;2023-04-25T07:39:06;99201.53;;;28.62;21.47
51081;BME280;37130;55.670;37.596;2023-04-25T07:41:33;99207.44;;;29.01;21.37
51081;BME280;37130;55.670;37.596;2023-04-25T07:44:02;99228.41;;;29.00;21.36
51081;BME280;37130;55.670;37.596;2023-04-25T07:46:31;99237.38;;;28.94;21.44
51081;BME280;37130;55.670;37.596;2023-04-25T07:48:59;99236.56;;;28.94;21.18
51081;BME280;37130;55.670;37.596;2023-04-25T07:51:26;99234.31;;;28.69;22.15
51081;BME280;37130;55.670;37.596;2023-04-25T07:53:59;99235.31;;;28.96;22.37
51081;BME280;37130;55.670;37.596;2023-04-25T07:56:28;99232.47;;;28.27;22.72
51081;BME280;37130;55.670;37.596;2023-04-25T07:59:12;99226.28;;;28.96;22.32
51081;BME280;37130;55.670;37.596;2023-04-25T08:01:41;99232.75;;;28.95;21.70
51081;BME280;37130;55.670;37.596;2023-04-25T08:04:10;99234.03;;;28.36;22.38
51081;BME280;37130;55.670;37.596;2023-04-25T08:06:59;99221.47;;;27.56;22.56
51081;BME280;37130;55.670;37.596;2023-04-25T08:09:34;99240.88;;;28.04;22.76
51081;BME280;37130;55.670;37.596;2023-04-25T08:12:06;99186.22;;;27.69;22.33
51081;BME280;37130;55.670;37.596;2023-04-25T08:14:35;99251.09;;;28.02;22.62
51081;BME280;37130;55.670;37.596;2023-04-25T08:17:05;99240.84;;;27.46;22.60
51081;BME280;37130;55.670;37.596;2023-04-25T08:19:38;99224.25;;;26.81;22.99
51081;BME280;37130;55.670;37.596;2023-04-25T08:22:10;99226.41;;;26.86;23.36
51081;BME280;37130;55.670;37.596;2023-04-25T08:24:51;99219.66;;;26.52;23.71
51081;BME280;37130;55.670;37.596;2023-04-25T08:27:19;99216.56;;;26.32;23.87
51081;BME280;37130;55.670;37.596;2023-04-25T08:29:48;99215.28;;;26.81;23.74
51081;BME280;37130;55.670;37.596;2023-04-25T08:32:15;99214.59;;;27.08;23.15
51081;BME280;37130;55.670;37.596;2023-04-25T08:34:56;99219.22;;;27.23;23.74
51081;BME280;37130;55.670;37.596;2023-04-25T08:37:24;99213.66;;;27.31;23.39
51081;BME280;37130;55.670;37.596;2023-04-25T08:40:00;99199.69;;;27.04;23.74
51081;BME280;37130;55.670;37.596;2023-04-25T08:42:50;99220.34;;;26.08;24.20
51081;BME280;37130;55.670;37.596;2023-04-25T08:45:18;99213.47;;;24.48;25.05
51081;BME280;37130;55.670;37.596;2023-04-25T08:47:46;99216.69;;;23.27;26.53
51081;BME280;37130;55.670;37.596;2023-04-25T08:50:16;99201.78;;;22.28;27.97
51081;BME280;37130;55.670;37.596;2023-04-25T08:52:46;99185.88;;;21.99;28.01
51081;BME280;37130;55.670;37.596;2023-04-25T08:55:15;99190.50;;;21.71;28.65
51081;BME280;37130;55.670;37.596;2023-04-25T08:57:43;99195.69;;;21.82;28.44
51081;BME280;37130;55.670;37.596;2023-04-25T09:00:12;99160.00;;;21.71;28.17
51081;BME280;37130;55.670;37.596;2023-04-25T09:02:43;99174.66;;;21.68;28.38
51081;BME280;37130;55.670;37.596;2023-04-25T09:05:13;99197.34;;;22.01;28.04
51081;BME280;37130;55.670;37.596;2023-04-25T09:07:42;99173.09;;;22.19;28.20
51081;BME280;37130;55.670;37.596;2023-04-25T09:10:10;99193.69;;;22.10;28.04
51081;BME280;37130;55.670;37.596;2023-04-25T09:12:38;99186.06;;;21.80;27.68
51081;BME280;37130;55.670;37.596;2023-04-25T09:15:12;99176.41;;;21.41;28.51
51081;BME280;37130;55.670;37.596;2023-04-25T09:17:58;99180.09;;;20.85;29.08
51081;BME280;37130;55.670;37.596;2023-04-25T09:20:41;99177.78;;;20.72;29.76
51081;BME280;37130;55.670;37.596;2023-04-25T09:23:27;99167.94;;;20.44;30.03
51081;BME280;37130;55.670;37.596;2023-04-25T09:25:54;99151.91;;;20.52;29.92
51081;BME280;37130;55.670;37.596;2023-04-25T09:28:26;99148.50;;;20.50;29.99
51081;BME280;37130;55.670;37.596;2023-04-25T09:30:58;99155.84;;;20.95;29.82
51081;BME280;37130;55.670;37.596;2023-04-25T09:33:34;99153.78;;;21.24;29.97
51081;BME280;37130;55.670;37.596;2023-04-25T09:36:07;99153.53;;;21.45;29.31
51081;BME280;37130;55.670;37.596;2023-04-25T09:38:47;99152.34;;;21.12;29.90
51081;BME280;37130;55.670;37.596;2023-04-25T09:41:24;99154.47;;;21.09;29.73
51081;BME280;37130;55.670;37.596;2023-04-25T09:43:57;99151.47;;;20.94;29.93
51081;BME280;37130;55.670;37.596;2023-04-25T09:46:35;99147.97;;;20.84;30.42
51081;BME280;37130;55.670;37.596;2023-04-25T09:49:14;99138.69;;;20.96;29.95
51081;BME280;37130;55.670;37.596;2023-04-25T09:52:09;99132.22;;;20.89;29.82
51081;BME280;37130;55.670;37.596;2023-04-25T09:54:44;99140.47;;;20.77;29.90
51081;BME280;37130;55.670;37.596;2023-04-25T09:57:17;99155.03;;;20.57;30.33
51081;BME280;37130;55.670;37.596;2023-04-25T09:59:51;99138.69;;;20.21;30.95
51081;BME280;37130;55.670;37.596;2023-04-25T10:02:25;99124.66;;;20.27;30.82
51081;BME280;37130;55.670;37.596;2023-04-25T10:05:00;99125.84;;;20.52;30.77
51081;BME280;37130;55.670;37.596;2023-04-25T10:07:38;99132.56;;;20.76;30.59
51081;BME280;37130;55.670;37.596;2023-04-25T10:10:12;99122.34;;;20.79;30.14
51081;BME280;37130;55.670;37.596;2023-04-25T10:12:40;99090.25;;;20.68;29.93
51081;BME280;37130;55.670;37.596;2023-04-25T10:15:11;99119.94;;;21.04;29.98
51081;BME280;37130;55.670;37.596;2023-04-25T10:17:39;99094.75;;;20.95;29.94
51081;BME280;37130;55.670;37.596;2023-04-25T10:20:07;99130.97;;;21.29;30.05
51081;BME280;37130;55.670;37.596;2023-04-25T10:22:41;99086.16;;;21.10;29.41
51081;BME280;37130;55.670;37.596;2023-04-25T10:25:10;99091.59;;;20.82;29.87
51081;BME280;37130;55.670;37.596;2023-04-25T10:27:39;99108.97;;;20.88;29.78
51081;BME280;37130;55.670;37.596;2023-04-25T10:30:13;99108.91;;;20.97;29.94
51081;BME280;37130;55.670;37.596;2023-04-25T10:32:44;99095.53;;;21.06;29.77
51081;BME280;37130;55.670;37.596;2023-04-25T10:35:13;99105.72;;;21.12;29.65
51081;BME280;37130;55.670;37.596;2023-04-25T10:40:34;99096.44;;;20.78;29.87
51081;BME280;37130;55.670;37.596;2023-04-25T10:46:32;99088.53;;;20.02;30.32
51081;BME280;37130;55.670;37.596;2023-04-25T10:49:03;99091.81;;;19.86;31.04
51081;BME280;37130;55.670;37.596;2023-04-25T10:51:32;99066.44;;;19.99;30.78
51081;BME280;37130;55.670;37.596;2023-04-25T10:54:22;99081.88;;;20.44;30.93
51081;BME280;37130;55.670;37.596;2023-04-25T10:56:52;99078.84;;;20.19;31.18
51081;BME280;37130;55.670;37.596;2023-04-25T10:59:24;99072.16;;;19.86;31.75
51081;BME280;37130;55.670;37.596;2023-04-25T11:01:52;99079.97;;;19.60;32.08
51081;BME280;37130;55.670;37.596;2023-04-25T11:04:28;99073.03;;;19.57;32.31
51081;BME280;37130;55.670;37.596;2023-04-25T11:09:40;99056.16;;;19.84;32.04
51081;BME280;37130;55.670;37.596;2023-04-25T11:12:09;99061.72;;;20.20;31.41
51081;BME280;37130;55.670;37.596;2023-04-25T11:14:39;99059.03;;;20.20;31.67
51081;BME280;37130;55.670;37.596;2023-04-25T11:17:11;99051.56;;;20.42;31.23
51081;BME280;37130;55.670;37.596;2023-04-25T11:19:39;99054.44;;;20.68;31.06
51081;BME280;37130;55.670;37.596;2023-04-25T11:22:06;99046.53;;;20.56;30.96
51081;BME280;37130;55.670;37.596;2023-04-25T11:24:35;99023.47;;;20.26;31.39
51081;BME280;37130;55.670;37.596;2023-04-25T11:27:04;99047.47;;;20.38;31.39
51081;BME280;37130;55.670;37.596;2023-04-25T11:29:34;99036.09;;;20.16;31.36
51081;BME280;37130;55.670;37.596;2023-04-25T11:32:02;99028.66;;;20.10;31.57
51081;BME280;37130;55.670;37.596;2023-04-25T11:34:31;99032.16;;;20.20;31.71
51081;BME280;37130;55.670;37.596;2023-04-25T11:37:01;99010.81;;;20.09;31.83
51081;BME280;37130;55.670;37.596;2023-04-25T11:39:29;98981.47;;;19.88;31.89
51081;BME280;37130;55.670;37.596;2023-04-25T11:41:57;99031.13;;;20.21;32.01
51081;BME280;37130;55.670;37.596;2023-04-25T11:44:28;99005.34;;;19.91;32.08
51081;BME280;37130;55.670;37.596;2023-04-25T11:46:55;99017.66;;;19.93;31.80
51081;BME280;37130;55.670;37.596;2023-04-25T11:49:22;99014.94;;;20.03;31.83
51081;BME280;37130;55.670;37.596;2023-04-25T11:51:52;99010.91;;;20.17;31.98
51081;BME280;37130;55.670;37.596;2023-04-25T11:54:19;98998.16;;;19.91;31.87
51081;BME280;37130;55.670;37.596;2023-04-25T11:56:47;98973.06;;;19.73;32.05
51081;BME280;37130;55.670;37.596;2023-04-25T11:59:15;99006.88;;;20.03;31.99
51081;BME280;37130;55.670;37.596;2023-04-25T12:01:49;98972.19;;;19.63;32.22
51081;BME280;37130;55.670;37.596;2023-04-25T12:04:24;98994.53;;;19.63;32.24
51081;BME280;37130;55.670;37.596;2023-04-25T12:06:54;98991.97;;;19.62;32.68
51081;BME280;37130;55.670;37.596;2023-04-25T12:09:33;98985.34;;;19.66;32.49
51081;BME280;37130;55.670;37.596;2023-04-25T12:12:01;98990.72;;;19.66;32.73
51081;BME280;37130;55.670;37.596;2023-04-25T12:14:34;98982.38;;;19.69;32.90
51081;BME280;37130;55.670;37.596;2023-04-25T12:17:04;98981.31;;;19.89;32.83
51081;BME280;37130;55.670;37.596;2023-04-25T12:19:35;98980.91;;;20.12;32.77
51081;BME280;37130;55.670;37.596;2023-04-25T12:22:03;98974.53;;;20.23;32.53
51081;BME280;37130;55.670;37.596;2023-04-25T12:24:46;98951.16;;;19.96;32.67
51081;BME280;37130;55.670;37.596;2023-04-25T12:27:16;98969.00;;;19.97;32.86
51081;BME280;37130;55.670;37.596;2023-04-25T12:29:59;98964.19;;;19.90;32.88
51081;BME280;37130;55.670;37.596;2023-04-25T12:32:29;98955.09;;;19.74;32.82
51081;BME280;37130;55.670;37.596;2023-04-25T12:34:57;98962.81;;;19.86;32.89
51081;BME280;37130;55.670;37.596;2023-04-25T12:37:25;98947.56;;;19.77;32.66
51081;BME280;37130;55.670;37.596;2023-04-25T12:39:52;98915.50;;;19.56;32.92
51081;BME280;37130;55.670;37.596;2023-04-25T12:42:20;98940.22;;;19.79;32.92
51081;BME280;37130;55.670;37.596;2023-04-25T12:44:47;98933.34;;;19.95;32.76
51081;BME280;37130;55.670;37.596;2023-04-25T12:47:15;98937.25;;;20.10;32.99
51081;BME280;37130;55.670;37.596;2023-04-25T12:49:43;98943.84;;;20.16;33.09
51081;BME280;37130;55.670;37.596;2023-04-25T12:52:10;98931.56;;;20.13;33.23
51081;BME280;37130;55.670;37.596;2023-04-25T12:54:37;98924.97;;;20.25;32.98
51081;BME280;37130;55.670;37.596;2023-04-25T12:57:05;98928.41;;;20.35;33.17
51081;BME280;37130;55.670;37.596;2023-04-25T12:59:33;98898.63;;;20.29;33.10
51081;BME280;37130;55.670;37.596;2023-04-25T13:02:01;98923.44;;;20.41;32.51
51081;BME280;37130;55.670;37.596;2023-04-25T13:04:28;98918.66;;;20.34;32.70
51081;BME280;37130;55.670;37.596;2023-04-25T13:06:57;98910.84;;;20.41;32.85
51081;BME280;37130;55.670;37.596;2023-04-25T13:09:24;98903.44;;;20.43;32.37
51081;BME280;37130;55.670;37.596;2023-04-25T13:11:52;98842.81;;;20.13;32.79
51081;BME280;37130;55.670;37.596;2023-04-25T13:14:24;98899.63;;;20.46;32.93
51081;BME280;37130;55.670;37.596;2023-04-25T13:16:51;98884.06;;;20.04;33.13
51081;BME280;37130;55.670;37.596;2023-04-25T13:19:19;98887.56;;;19.86;33.22
51081;BME280;37130;55.670;37.596;2023-04-25T13:21:47;98890.00;;;19.80;33.82
51081;BME280;37130;55.670;37.596;2023-04-25T13:24:15;98892.69;;;19.80;33.87